createdAt,value
2018-03-06T00:00:29.927Z,100.00
2018-03-06T00:01:33.801Z,100.00
2018-03-06T00:02:37.330Z,100.00
2018-03-06T00:03:40.821Z,100.00
2018-03-06T00:04:44.602Z,100.00
2018-03-06T00:05:48.937Z,100.00
2018-03-06T00:06:53.189Z,100.00
2018-03-06T00:07:57.894Z,100.00
2018-03-06T00:09:01.302Z,100.00
2018-03-06T00:10:04.705Z,100.00
2018-03-06T00:11:08.102Z,100.00
2018-03-06T00:12:12.160Z,100.00
2018-03-06T00:13:17.023Z,100.00
2018-03-06T00:14:21.582Z,100.00
2018-03-06T00:15:25.168Z,100.00
2018-03-06T00:16:28.656Z,100.00
2018-03-06T00:17:32.394Z,100.00
2018-03-06T00:18:35.927Z,100.00
2018-03-06T00:19:39.762Z,100.00
2018-03-06T00:20:44.010Z,100.00
2018-03-06T00:21:47.803Z,100.00
2018-03-06T00:22:51.552Z,100.00
2018-03-06T00:23:55.154Z,100.00
2018-03-06T00:24:58.915Z,100.00
2018-03-06T00:26:02.762Z,100.00
2018-03-06T00:27:07.413Z,100.00
2018-03-06T00:28:11.161Z,100.00
2018-03-06T00:29:15.646Z,100.00
2018-03-06T00:30:20.849Z,100.00
2018-03-06T00:31:24.858Z,100.00
2018-03-06T00:32:28.549Z,100.00
2018-03-06T00:33:33.160Z,100.00
2018-03-06T00:34:37.078Z,100.00
2018-03-06T00:35:40.890Z,100.00
2018-03-06T00:36:44.737Z,100.00
2018-03-06T00:37:50.982Z,100.00
2018-03-06T00:38:55.859Z,100.00
2018-03-06T00:40:00.186Z,100.00
2018-03-06T00:41:05.186Z,100.00
2018-03-06T00:42:09.542Z,100.00
2018-03-06T00:43:13.152Z,100.00
2018-03-06T00:44:16.768Z,100.00
2018-03-06T00:45:20.848Z,100.00
2018-03-06T00:46:24.496Z,100.00
2018-03-06T00:47:28.799Z,100.00
2018-03-06T00:48:33.585Z,100.00
2018-03-06T00:49:38.383Z,100.00
2018-03-06T00:50:42.809Z,100.00
2018-03-06T00:51:47.303Z,100.00
2018-03-06T00:52:51.034Z,100.00
2018-03-06T00:53:54.868Z,100.00
2018-03-06T00:54:58.603Z,100.00
2018-03-06T00:56:02.705Z,100.00
2018-03-06T00:57:06.958Z,100.00
2018-03-06T00:58:11.142Z,100.00
2018-03-06T00:59:15.104Z,100.00
2018-03-06T01:00:18.725Z,100.00
2018-03-06T01:01:22.485Z,100.00
2018-03-06T01:02:26.664Z,100.00
2018-03-06T01:03:30.634Z,100.00
2018-03-06T01:04:34.640Z,100.00
2018-03-06T01:05:38.598Z,100.00
2018-03-06T01:06:43.095Z,100.00
2018-03-06T01:07:47.061Z,100.00
2018-03-06T01:08:50.574Z,100.00
2018-03-06T01:09:55.538Z,100.00
2018-03-06T01:10:59.407Z,100.00
2018-03-06T01:12:03.444Z,100.00
2018-03-06T01:13:07.331Z,100.00
2018-03-06T01:14:11.026Z,100.00
2018-03-06T01:15:15.628Z,100.00
2018-03-06T01:16:20.698Z,100.00
2018-03-06T01:17:25.053Z,100.00
2018-03-06T01:18:28.480Z,100.00
2018-03-06T01:19:32.423Z,100.00
2018-03-06T01:20:36.089Z,100.00
2018-03-06T01:21:40.163Z,100.00
2018-03-06T01:22:44.191Z,100.00
2018-03-06T01:23:48.601Z,100.00
2018-03-06T01:24:53.998Z,100.00
2018-03-06T01:25:57.775Z,100.00
2018-03-06T01:27:02.315Z,100.00
2018-03-06T01:28:06.142Z,100.00
2018-03-06T01:29:09.948Z,100.00
2018-03-06T01:30:13.667Z,100.00
2018-03-06T01:31:17.744Z,100.00
2018-03-06T01:32:22.267Z,100.00
2018-03-06T01:33:26.349Z,100.00
2018-03-06T01:34:32.286Z,100.00
2018-03-06T01:35:37.108Z,100.00
2018-03-06T01:36:42.013Z,100.00
2018-03-06T01:37:45.347Z,100.00
2018-03-06T01:38:49.013Z,100.00
2018-03-06T01:39:52.503Z,100.00
2018-03-06T01:40:55.955Z,100.00
2018-03-06T01:41:59.786Z,100.00
2018-03-06T01:43:04.504Z,100.00
2018-03-06T01:44:10.836Z,100.00
2018-03-06T01:45:14.901Z,100.00
2018-03-06T01:46:18.237Z,100.00
2018-03-06T01:47:21.975Z,100.00
2018-03-06T01:48:25.890Z,100.00
2018-03-06T01:49:29.542Z,100.00
2018-03-06T01:50:33.665Z,100.00
2018-03-06T01:51:38.318Z,100.00
2018-03-06T01:52:43.432Z,100.00
2018-03-06T01:53:47.965Z,100.00
2018-03-06T01:54:53.040Z,100.00
2018-03-06T01:55:57.583Z,100.00
2018-03-06T01:57:02.870Z,100.00
2018-03-06T01:58:08.459Z,100.00
2018-03-06T01:59:12.300Z,100.00
2018-03-06T02:00:16.061Z,100.00
2018-03-06T02:01:20.124Z,100.00
2018-03-06T02:02:23.626Z,100.00
2018-03-06T02:03:27.404Z,100.00
2018-03-06T02:04:31.478Z,100.00
2018-03-06T02:05:36.670Z,100.00
2018-03-06T02:06:42.209Z,100.00
2018-03-06T02:07:47.380Z,100.00
2018-03-06T02:08:51.578Z,100.00
2018-03-06T02:09:55.591Z,100.00
2018-03-06T02:10:59.600Z,100.00
2018-03-06T02:12:02.849Z,100.00
2018-03-06T02:13:06.274Z,100.00
2018-03-06T02:14:11.177Z,100.00
2018-03-06T02:15:15.358Z,100.00
2018-03-06T02:16:20.426Z,100.00
2018-03-06T02:17:24.368Z,100.00
2018-03-06T02:18:28.068Z,100.00
2018-03-06T02:19:31.595Z,100.00
2018-03-06T02:20:35.048Z,100.00
2018-03-06T02:21:38.837Z,100.00
2018-03-06T02:22:43.041Z,100.00
2018-03-06T02:23:49.277Z,100.00
2018-03-06T02:24:54.358Z,100.00
2018-03-06T02:25:59.279Z,100.00
2018-03-06T02:27:03.592Z,100.00
2018-03-06T02:28:07.452Z,100.00
2018-03-06T02:29:11.336Z,100.00
2018-03-06T02:30:14.902Z,100.00
2018-03-06T02:31:18.236Z,100.00
2018-03-06T02:32:22.248Z,100.00
2018-03-06T02:33:27.172Z,100.00
2018-03-06T02:34:32.294Z,100.00
2018-03-06T02:35:35.752Z,100.00
2018-03-06T02:36:39.004Z,100.00
2018-03-06T02:37:42.312Z,100.00
2018-03-06T02:38:45.452Z,100.00
2018-03-06T02:39:49.691Z,100.00
2018-03-06T02:40:54.335Z,100.00
2018-03-06T02:41:58.806Z,100.00
2018-03-06T02:43:02.336Z,100.00
2018-03-06T02:44:05.654Z,100.00
2018-03-06T02:45:08.886Z,100.00
2018-03-06T02:46:12.775Z,100.00
2018-03-06T02:47:16.733Z,100.00
2018-03-06T02:48:20.290Z,100.00
2018-03-06T02:49:23.580Z,100.00
2018-03-06T02:50:26.809Z,100.00
2018-03-06T02:51:30.032Z,100.00
2018-03-06T02:52:34.759Z,100.00
2018-03-06T02:53:39.505Z,100.00
2018-03-06T02:54:43.563Z,100.00
2018-03-06T02:55:46.831Z,100.00
2018-03-06T02:58:04.031Z,100.00
2018-03-06T02:59:08.748Z,100.00
2018-03-06T03:00:14.179Z,100.00
2018-03-06T03:01:19.036Z,100.00
2018-03-06T03:02:23.618Z,100.00
2018-03-06T03:03:26.698Z,100.00
2018-03-06T03:04:29.822Z,100.00
2018-03-06T03:05:33.490Z,100.00
2018-03-06T03:06:36.786Z,100.00
2018-03-06T03:07:41.091Z,100.00
2018-03-06T03:08:45.393Z,100.00
2018-03-06T03:09:48.869Z,100.00
2018-03-06T03:10:52.084Z,100.00
2018-03-06T03:11:55.798Z,100.00
2018-03-06T03:12:59.050Z,100.00
2018-03-06T03:14:02.860Z,100.00
2018-03-06T03:15:06.858Z,100.00
2018-03-06T03:16:10.420Z,100.00
2018-03-06T03:17:13.526Z,100.00
2018-03-06T03:18:17.128Z,100.00
2018-03-06T03:19:20.629Z,100.00
2018-03-06T03:20:25.269Z,100.00
2018-03-06T03:21:29.973Z,100.00
2018-03-06T03:22:34.958Z,100.00
2018-03-06T03:23:38.190Z,100.00
2018-03-06T03:24:41.769Z,100.00
2018-03-06T03:25:45.065Z,100.00
2018-03-06T03:26:48.754Z,100.00
2018-03-06T03:27:52.358Z,100.00
2018-03-06T03:28:56.022Z,100.00
2018-03-06T03:29:59.169Z,100.00
2018-03-06T03:31:03.173Z,100.00
2018-03-06T03:32:06.466Z,100.00
2018-03-06T03:33:09.839Z,100.00
2018-03-06T03:34:13.543Z,100.00
2018-03-06T03:35:16.778Z,100.00
2018-03-06T03:36:19.954Z,100.00
2018-03-06T03:37:23.581Z,100.00
2018-03-06T03:38:27.071Z,100.00
2018-03-06T03:39:32.469Z,100.00
2018-03-06T03:40:37.695Z,100.00
2018-03-06T03:41:42.269Z,100.00
2018-03-06T03:42:46.740Z,100.00
2018-03-06T03:43:51.006Z,100.00
2018-03-06T03:44:54.474Z,100.00
2018-03-06T03:45:57.619Z,100.00
2018-03-06T03:47:01.193Z,100.00
2018-03-06T03:48:05.877Z,100.00
2018-03-06T03:49:10.511Z,100.00
2018-03-06T03:50:14.869Z,100.00
2018-03-06T03:51:19.048Z,100.00
2018-03-06T03:52:22.402Z,100.00
2018-03-06T03:53:25.939Z,100.00
2018-03-06T03:54:29.136Z,100.00
2018-03-06T03:55:32.737Z,100.00
2018-03-06T03:56:36.797Z,100.00
2018-03-06T03:57:40.981Z,100.00
2018-03-06T03:58:44.502Z,100.00
2018-03-06T03:59:47.693Z,100.00
2018-03-06T04:00:50.831Z,100.00
2018-03-06T04:01:54.186Z,100.00
2018-03-06T04:02:58.929Z,100.00
2018-03-06T04:04:03.596Z,100.00
2018-03-06T04:05:07.072Z,100.00
2018-03-06T04:06:10.170Z,100.00
2018-03-06T04:07:13.291Z,100.00
2018-03-06T04:08:16.595Z,100.00
2018-03-06T04:09:21.667Z,100.00
2018-03-06T04:10:25.261Z,100.00
2018-03-06T04:11:28.479Z,100.00
2018-03-06T04:12:31.992Z,100.00
2018-03-06T04:13:35.126Z,100.00
2018-03-06T04:14:38.647Z,100.00
2018-03-06T04:15:43.166Z,100.00
2018-03-06T04:16:47.488Z,100.00
2018-03-06T04:17:51.317Z,100.00
2018-03-06T04:18:54.521Z,100.00
2018-03-06T04:19:57.853Z,100.00
2018-03-06T04:21:02.019Z,100.00
2018-03-06T04:22:06.146Z,100.00
2018-03-06T04:23:10.229Z,100.00
2018-03-06T04:24:13.896Z,100.00
2018-03-06T04:25:17.468Z,100.00
2018-03-06T04:26:20.752Z,100.00
2018-03-06T04:27:23.792Z,100.00
2018-03-06T04:28:28.139Z,100.00
2018-03-06T04:29:32.358Z,100.00
2018-03-06T04:30:39.352Z,100.00
2018-03-06T04:31:42.541Z,100.00
2018-03-06T04:32:47.458Z,100.00
2018-03-06T04:33:52.810Z,100.00
2018-03-06T04:34:57.054Z,100.00
2018-03-06T04:36:00.479Z,100.00
2018-03-06T04:37:03.797Z,100.00
2018-03-06T04:38:06.924Z,100.00
2018-03-06T04:39:10.199Z,100.00
2018-03-06T04:40:16.516Z,100.00
2018-03-06T04:41:21.132Z,100.00
2018-03-06T04:42:25.358Z,100.00
2018-03-06T04:43:31.057Z,100.00
2018-03-06T04:44:34.701Z,100.00
2018-03-06T04:45:38.162Z,100.00
2018-03-06T04:46:41.494Z,100.00
2018-03-06T04:47:44.655Z,100.00
2018-03-06T04:48:48.128Z,100.00
2018-03-06T04:49:53.044Z,100.00
2018-03-06T04:50:57.800Z,100.00
2018-03-06T04:52:01.690Z,100.00
2018-03-06T04:53:04.880Z,100.00
2018-03-06T04:54:09.103Z,100.00
2018-03-06T04:55:12.413Z,100.00
2018-03-06T04:56:15.718Z,100.00
2018-03-06T04:57:19.454Z,100.00
2018-03-06T04:58:25.118Z,100.00
2018-03-06T04:59:29.708Z,100.00
2018-03-06T05:00:34.399Z,100.00
2018-03-06T05:01:37.971Z,100.00
2018-03-06T05:02:41.347Z,100.00
2018-03-06T05:03:44.617Z,100.00
2018-03-06T05:04:47.974Z,100.00
2018-03-06T05:05:52.318Z,100.00
2018-03-06T05:06:57.043Z,100.00
2018-03-06T05:08:00.981Z,100.00
2018-03-06T05:09:04.266Z,100.00
2018-03-06T05:10:07.511Z,100.00
2018-03-06T05:11:10.979Z,100.00
2018-03-06T05:12:14.652Z,100.00
2018-03-06T05:13:18.651Z,100.00
2018-03-06T05:14:22.726Z,100.00
2018-03-06T05:15:26.422Z,100.00
2018-03-06T05:16:30.298Z,100.00
2018-03-06T05:17:33.400Z,100.00
2018-03-06T05:18:36.889Z,100.00
2018-03-06T05:19:41.226Z,100.00
2018-03-06T05:20:46.397Z,100.00
2018-03-06T05:21:50.642Z,100.00
2018-03-06T05:22:55.265Z,100.00
2018-03-06T05:23:58.851Z,100.00
2018-03-06T05:25:02.457Z,100.00
2018-03-06T05:26:06.217Z,100.00
2018-03-06T05:27:09.652Z,100.00
2018-03-06T05:28:13.595Z,100.00
2018-03-06T05:29:18.245Z,100.00
2018-03-06T05:30:21.912Z,100.00
2018-03-06T05:31:25.387Z,100.00
2018-03-06T05:32:30.244Z,100.00
2018-03-06T05:33:33.859Z,100.00
2018-03-06T05:34:37.492Z,100.00
2018-03-06T05:35:42.387Z,100.00
2018-03-06T05:36:46.266Z,100.00
2018-03-06T05:37:51.701Z,100.00
2018-03-06T05:38:56.916Z,100.00
2018-03-06T05:40:01.457Z,100.00
2018-03-06T05:41:05.395Z,100.00
2018-03-06T05:42:09.171Z,100.00
2018-03-06T05:43:13.022Z,100.00
2018-03-06T05:44:16.598Z,100.00
2018-03-06T05:45:20.998Z,100.00
2018-03-06T05:46:25.589Z,100.00
2018-03-06T05:47:30.826Z,100.00
2018-03-06T05:48:37.894Z,100.00
2018-03-06T05:49:41.840Z,100.00
2018-03-06T05:50:46.581Z,100.00
2018-03-06T05:51:53.147Z,100.00
2018-03-06T05:52:58.525Z,100.00
2018-03-06T05:54:03.036Z,100.00
2018-03-06T05:55:07.525Z,100.00
2018-03-06T05:56:11.980Z,100.00
2018-03-06T05:57:15.664Z,100.00
2018-03-06T05:58:19.677Z,100.00
2018-03-06T05:59:23.551Z,100.00
2018-03-06T06:00:27.278Z,100.00
2018-03-06T06:01:31.421Z,100.00
2018-03-06T06:02:35.462Z,100.00
2018-03-06T06:03:39.257Z,100.00
2018-03-06T06:04:43.198Z,100.00
2018-03-06T06:05:46.926Z,100.00
2018-03-06T06:06:50.629Z,100.00
2018-03-06T06:07:55.251Z,100.00
2018-03-06T06:08:59.325Z,100.00
2018-03-06T06:10:03.471Z,100.00
2018-03-06T06:11:08.273Z,100.00
2018-03-06T06:12:12.959Z,100.00
2018-03-06T06:13:17.137Z,100.00
2018-03-06T06:14:20.705Z,100.00
2018-03-06T06:15:24.344Z,100.00
2018-03-06T06:16:28.007Z,100.00
2018-03-06T06:17:32.840Z,100.00
2018-03-06T06:18:37.030Z,100.00
2018-03-06T06:19:41.451Z,100.00
2018-03-06T06:20:45.696Z,100.00
2018-03-06T06:21:49.176Z,100.00
2018-03-06T06:22:52.863Z,100.00
2018-03-06T06:23:56.791Z,100.00
2018-03-06T06:25:00.595Z,100.00
2018-03-06T06:26:05.111Z,100.00
2018-03-06T06:27:09.255Z,100.00
2018-03-06T06:28:13.940Z,100.00
2018-03-06T06:29:17.483Z,100.00
2018-03-06T06:30:21.539Z,100.00
2018-03-06T06:31:25.127Z,100.00
2018-03-06T06:32:28.671Z,100.00
2018-03-06T06:33:33.711Z,100.00
2018-03-06T06:34:37.694Z,100.00
2018-03-06T06:35:41.711Z,100.00
2018-03-06T06:36:45.816Z,100.00
2018-03-06T06:37:49.553Z,100.00
2018-03-06T06:38:53.126Z,100.00
2018-03-06T06:39:56.851Z,100.00
2018-03-06T06:41:00.859Z,100.00
2018-03-06T06:42:04.866Z,100.00
2018-03-06T06:43:10.081Z,100.00
2018-03-06T06:44:14.312Z,100.00
2018-03-06T06:45:19.504Z,100.00
2018-03-06T06:46:23.387Z,100.00
2018-03-06T06:47:27.199Z,100.00
2018-03-06T06:48:31.055Z,100.00
2018-03-06T06:49:35.139Z,100.00
2018-03-06T06:50:38.962Z,100.00
2018-03-06T06:51:43.196Z,100.00
2018-03-06T06:52:48.341Z,100.00
2018-03-06T06:53:52.582Z,100.00
2018-03-06T06:54:56.356Z,100.00
2018-03-06T06:56:00.286Z,100.00
2018-03-06T06:57:03.776Z,100.00
2018-03-06T06:58:09.055Z,100.00
2018-03-06T06:59:13.204Z,100.00
2018-03-06T07:00:18.151Z,100.00
2018-03-06T07:01:22.609Z,100.00
2018-03-06T07:02:30.027Z,100.00
2018-03-06T07:03:34.608Z,100.00
2018-03-06T07:04:38.633Z,100.00
2018-03-06T07:05:43.013Z,100.00
2018-03-06T07:06:47.041Z,100.00
2018-03-06T07:07:50.424Z,100.00
2018-03-06T07:08:54.464Z,100.00
2018-03-06T07:09:58.261Z,100.00
2018-03-06T07:17:21.068Z,100.00
2018-03-06T07:28:46.750Z,100.00
2018-03-06T07:37:24.323Z,100.00
2018-03-06T07:47:45.264Z,100.00
2018-03-06T07:52:18.267Z,100.00
2018-03-06T07:54:55.420Z,100.00
2018-03-06T07:56:02.364Z,100.00
2018-03-06T08:00:21.327Z,100.00
2018-03-06T08:04:29.271Z,100.00
2018-03-06T08:05:36.920Z,100.00
2018-03-06T08:09:56.275Z,100.00
2018-03-06T08:11:01.228Z,100.00
2018-03-06T08:12:07.054Z,100.00
2018-03-06T08:13:11.143Z,100.00
2018-03-06T08:17:19.013Z,100.00
2018-03-06T08:21:38.138Z,100.00
2018-03-06T08:25:56.572Z,100.00
2018-03-06T08:33:17.224Z,100.00
2018-03-06T08:34:20.872Z,100.00
2018-03-06T08:35:24.353Z,100.00
2018-03-06T08:36:28.351Z,100.00
2018-03-06T08:37:32.271Z,100.00
2018-03-06T08:38:35.654Z,100.00
2018-03-06T08:39:39.464Z,100.00
2018-03-06T08:40:42.965Z,100.00
2018-03-06T08:41:47.548Z,100.00
2018-03-06T08:42:52.984Z,100.00
2018-03-06T08:43:57.995Z,100.00
2018-03-06T08:45:02.054Z,100.00
2018-03-06T08:46:06.429Z,100.00
2018-03-06T08:47:10.024Z,100.00
2018-03-06T08:48:13.445Z,100.00
2018-03-06T08:49:16.906Z,100.00
2018-03-06T08:50:20.536Z,100.00
2018-03-06T08:51:24.674Z,100.00
2018-03-06T08:52:29.012Z,100.00
2018-03-06T08:53:32.731Z,100.00
2018-03-06T08:54:36.509Z,100.00
2018-03-06T08:55:40.075Z,100.00
2018-03-06T08:56:43.514Z,100.00
2018-03-06T08:57:47.846Z,100.00
2018-03-06T08:58:51.906Z,100.00
2018-03-06T08:59:56.137Z,100.00
2018-03-06T09:00:59.873Z,100.00
2018-03-06T09:02:03.366Z,100.00
2018-03-06T09:03:06.931Z,100.00
2018-03-06T09:04:11.136Z,100.00
2018-03-06T09:05:15.765Z,100.00
2018-03-06T09:06:20.596Z,100.00
2018-03-06T09:07:25.134Z,100.00
2018-03-06T09:08:29.104Z,100.00
2018-03-06T09:09:32.771Z,100.00
2018-03-06T09:10:36.682Z,100.00
2018-03-06T09:11:40.131Z,100.00
2018-03-06T09:12:43.590Z,100.00
2018-03-06T09:13:48.401Z,100.00
2018-03-06T09:14:52.150Z,100.00
2018-03-06T09:15:55.898Z,100.00
2018-03-06T09:17:00.100Z,100.00
2018-03-06T09:18:03.643Z,100.00
2018-03-06T09:19:07.308Z,100.00
2018-03-06T09:20:11.210Z,100.00
2018-03-06T09:21:15.078Z,100.00
2018-03-06T09:22:19.149Z,100.00
2018-03-06T09:23:22.909Z,100.00
2018-03-06T09:24:26.854Z,100.00
2018-03-06T09:25:30.197Z,100.00
2018-03-06T09:26:34.733Z,100.00
2018-03-06T09:27:38.501Z,100.00
2018-03-06T09:28:42.406Z,100.00
2018-03-06T09:29:47.009Z,100.00
2018-03-06T09:30:50.398Z,100.00
2018-03-06T09:31:53.951Z,100.00
2018-03-06T09:32:57.367Z,100.00
2018-03-06T09:34:00.932Z,100.00
2018-03-06T09:35:04.989Z,100.00
2018-03-06T09:36:09.129Z,100.00
2018-03-06T09:37:12.828Z,100.00
2018-03-06T09:38:16.214Z,100.00
2018-03-06T09:39:19.565Z,100.00
2018-03-06T09:40:23.078Z,100.00
2018-03-06T09:41:26.841Z,100.00
2018-03-06T09:42:31.284Z,100.00
2018-03-06T09:43:35.441Z,100.00
2018-03-06T09:44:39.187Z,100.00
2018-03-06T09:45:42.813Z,100.00
2018-03-06T09:46:46.517Z,100.00
2018-03-06T09:47:50.072Z,100.00
2018-03-06T09:48:57.188Z,100.00
2018-03-06T09:50:00.669Z,100.00
2018-03-06T09:51:05.173Z,100.00
2018-03-06T09:52:09.143Z,100.00
2018-03-06T09:53:12.812Z,100.00
2018-03-06T09:54:16.367Z,100.00
2018-03-06T09:55:21.166Z,100.00
2018-03-06T09:56:30.556Z,100.00
2018-03-06T09:57:34.866Z,100.00
2018-03-06T09:58:38.986Z,100.00
2018-03-06T09:59:42.949Z,100.00
2018-03-06T10:00:46.616Z,100.00
2018-03-06T10:01:52.249Z,100.00
2018-03-06T10:02:56.229Z,100.00
2018-03-06T10:04:00.261Z,100.00
2018-03-06T10:06:12.850Z,100.00
2018-03-06T10:07:18.496Z,100.00
2018-03-06T10:08:23.910Z,100.00
2018-03-06T10:09:28.515Z,100.00
2018-03-06T10:10:33.201Z,100.00
2018-03-06T10:11:36.966Z,100.00
2018-03-06T10:12:40.604Z,100.00
2018-03-06T10:13:44.087Z,100.00
2018-03-06T10:14:48.037Z,100.00
2018-03-06T10:15:52.018Z,100.00
2018-03-06T10:16:56.201Z,100.00
2018-03-06T10:18:00.379Z,99.36
2018-03-06T10:19:04.019Z,98.58
2018-03-06T10:20:07.505Z,95.87
2018-03-06T10:21:11.358Z,92.58
2018-03-06T10:22:14.639Z,89.93
2018-03-06T10:23:19.993Z,87.19
2018-03-06T10:24:23.980Z,84.48
2018-03-06T10:25:28.522Z,86.54
2018-03-06T10:26:32.585Z,88.78
2018-03-06T10:27:37.281Z,91.95
2018-03-06T10:28:40.949Z,92.45
2018-03-06T10:29:44.693Z,89.14
2018-03-06T10:30:48.377Z,91.43
2018-03-06T10:31:52.041Z,92.42
2018-03-06T10:32:56.589Z,94.26
2018-03-06T10:34:01.841Z,94.46
2018-03-06T10:35:07.301Z,94.80
2018-03-06T10:36:12.255Z,92.72
2018-03-06T10:37:17.326Z,92.33
2018-03-06T10:38:21.211Z,93.41
2018-03-06T10:39:25.457Z,89.99
2018-03-06T10:40:29.472Z,89.62
2018-03-06T10:41:33.123Z,91.67
2018-03-06T10:42:36.589Z,88.00
2018-03-06T10:43:40.374Z,84.85
2018-03-06T10:44:44.494Z,83.44
2018-03-06T10:45:49.363Z,82.49
2018-03-06T10:46:55.497Z,82.74
2018-03-06T10:47:59.268Z,81.84
2018-03-06T10:49:02.707Z,82.24
2018-03-06T10:50:06.103Z,81.47
2018-03-06T10:51:09.636Z,78.32
2018-03-06T10:52:13.406Z,80.97
2018-03-06T10:53:18.135Z,89.81
2018-03-06T10:54:22.682Z,88.89
2018-03-06T10:55:26.347Z,87.37
2018-03-06T10:56:30.045Z,83.68
2018-03-06T10:57:33.636Z,84.77
2018-03-06T10:58:37.415Z,84.24
2018-03-06T10:59:41.570Z,83.53
2018-03-06T11:00:48.827Z,81.20
2018-03-06T11:01:56.965Z,78.42
2018-03-06T11:03:01.674Z,80.26
2018-03-06T11:04:05.128Z,81.28
2018-03-06T11:05:09.229Z,80.94
2018-03-06T11:06:14.236Z,84.13
2018-03-06T11:07:18.526Z,82.31
2018-03-06T11:08:24.667Z,79.54
2018-03-06T11:09:29.530Z,80.39
2018-03-06T11:10:34.384Z,80.70
2018-03-06T11:11:38.414Z,80.54
2018-03-06T11:12:42.339Z,77.61
2018-03-06T11:13:45.763Z,76.18
2018-03-06T11:14:49.258Z,74.75
2018-03-06T11:15:52.762Z,73.21
2018-03-06T11:16:58.456Z,76.29
2018-03-06T11:18:02.916Z,72.45
2018-03-06T11:19:06.764Z,67.42
2018-03-06T11:20:10.508Z,66.38
2018-03-06T11:21:14.187Z,64.54
2018-03-06T11:22:17.823Z,70.19
2018-03-06T11:23:21.461Z,71.85
2018-03-06T11:24:25.765Z,74.18
2018-03-06T11:25:29.918Z,76.04
2018-03-06T11:26:34.290Z,74.86
2018-03-06T11:27:38.958Z,72.61
2018-03-06T11:28:43.023Z,72.91
2018-03-06T11:29:46.616Z,73.85
2018-03-06T11:30:50.579Z,74.24
2018-03-06T11:31:54.043Z,73.66
2018-03-06T11:33:02.094Z,69.08
2018-03-06T11:34:05.504Z,73.10
2018-03-06T11:35:09.177Z,74.50
2018-03-06T11:36:14.670Z,72.93
2018-03-06T11:37:20.175Z,71.04
2018-03-06T11:38:24.120Z,67.80
2018-03-06T11:39:28.440Z,67.28
2018-03-06T11:40:33.569Z,67.36
2018-03-06T11:41:37.030Z,70.83
2018-03-06T11:42:40.584Z,69.60
2018-03-06T11:43:44.478Z,70.63
2018-03-06T11:44:47.987Z,69.80
2018-03-06T11:45:52.401Z,66.59
2018-03-06T11:46:56.800Z,65.96
2018-03-06T11:48:00.802Z,65.25
2018-03-06T11:49:04.362Z,63.36
2018-03-06T11:50:08.906Z,60.54
2018-03-06T11:51:12.421Z,59.95
2018-03-06T11:52:15.952Z,58.45
2018-03-06T11:53:20.164Z,59.11
2018-03-06T11:54:25.222Z,57.91
2018-03-06T11:55:29.154Z,59.81
2018-03-06T11:56:32.720Z,61.74
2018-03-06T11:57:36.256Z,60.87
2018-03-06T11:58:39.722Z,58.36
2018-03-06T11:59:43.114Z,56.80
2018-03-06T12:00:46.835Z,55.33
2018-03-06T12:01:51.268Z,53.18
2018-03-06T12:02:55.421Z,55.91
2018-03-06T12:03:59.297Z,56.87
2018-03-06T12:05:03.144Z,59.04
2018-03-06T12:06:06.549Z,58.80
2018-03-06T12:07:10.261Z,59.79
2018-03-06T12:08:15.169Z,58.86
2018-03-06T12:09:19.711Z,59.47
2018-03-06T12:10:23.900Z,57.64
2018-03-06T12:11:27.572Z,55.31
2018-03-06T12:12:30.912Z,56.83
2018-03-06T12:13:34.322Z,57.37
2018-03-06T12:14:38.465Z,57.09
2018-03-06T12:15:42.129Z,55.60
2018-03-06T12:16:45.645Z,54.63
2018-03-06T12:17:49.021Z,54.20
2018-03-06T12:18:52.634Z,53.86
2018-03-06T12:19:56.124Z,51.37
2018-03-06T12:21:00.043Z,52.53
2018-03-06T12:22:03.504Z,57.55
2018-03-06T12:23:06.926Z,57.93
2018-03-06T12:24:10.441Z,56.74
2018-03-06T12:25:14.606Z,57.50
2018-03-06T12:26:18.050Z,54.33
2018-03-06T12:27:21.854Z,51.74
2018-03-06T12:28:25.238Z,52.82
2018-03-06T12:29:28.635Z,56.11
2018-03-06T12:30:31.988Z,59.85
2018-03-06T12:31:35.365Z,61.11
2018-03-06T12:32:38.693Z,62.49
2018-03-06T12:33:42.688Z,63.53
2018-03-06T12:34:47.141Z,63.25
2018-03-06T12:35:50.998Z,61.01
2018-03-06T12:36:54.623Z,60.61
2018-03-06T12:37:58.607Z,59.93
2018-03-06T12:39:02.078Z,57.94
2018-03-06T12:40:06.090Z,55.79
2018-03-06T12:41:09.535Z,53.63
2018-03-06T12:42:13.860Z,52.11
2018-03-06T12:43:17.316Z,51.45
2018-03-06T12:44:20.797Z,50.10
2018-03-06T12:45:24.224Z,51.31
2018-03-06T12:46:27.929Z,52.67
2018-03-06T12:47:31.339Z,52.73
2018-03-06T12:48:34.779Z,52.60
2018-03-06T12:49:38.039Z,52.71
2018-03-06T12:50:41.416Z,51.21
2018-03-06T12:51:44.805Z,49.36
2018-03-06T12:52:48.433Z,52.61
2018-03-06T12:53:51.948Z,52.42
2018-03-06T12:54:55.388Z,56.64
2018-03-06T12:55:58.903Z,56.42
2018-03-06T12:57:02.353Z,55.58
2018-03-06T12:58:05.702Z,53.71
2018-03-06T12:59:09.630Z,53.27
2018-03-06T13:00:13.085Z,55.26
2018-03-06T13:01:16.490Z,53.21
2018-03-06T13:02:19.871Z,53.58
2018-03-06T13:03:23.286Z,53.45
2018-03-06T13:04:26.773Z,56.69
2018-03-06T13:05:30.597Z,54.95
2018-03-06T13:06:33.934Z,56.53
2018-03-06T13:07:37.291Z,54.70
2018-03-06T13:08:40.730Z,53.08
2018-03-06T13:09:44.227Z,50.51
2018-03-06T13:10:47.470Z,51.02
2018-03-06T13:11:51.195Z,49.93
2018-03-06T13:12:55.280Z,48.99
2018-03-06T13:13:59.430Z,47.91
2018-03-06T13:15:02.900Z,47.41
2018-03-06T13:16:06.610Z,46.71
2018-03-06T13:17:11.138Z,45.43
2018-03-06T13:18:16.019Z,45.00
2018-03-06T13:19:19.334Z,43.98
2018-03-06T13:20:22.671Z,43.92
2018-03-06T13:21:26.251Z,43.31
2018-03-06T13:22:29.535Z,44.21
2018-03-06T13:23:33.236Z,44.45
2018-03-06T13:24:36.625Z,44.69
2018-03-06T13:25:39.933Z,43.45
2018-03-06T13:26:43.287Z,45.09
2018-03-06T13:27:46.627Z,45.28
2018-03-06T13:28:49.854Z,45.11
2018-03-06T13:29:53.647Z,44.17
2018-03-06T13:30:56.940Z,44.76
2018-03-06T13:32:00.339Z,45.15
2018-03-06T13:33:03.636Z,44.37
2018-03-06T13:34:07.038Z,44.66
2018-03-06T13:35:10.464Z,45.21
2018-03-06T13:36:14.261Z,45.25
2018-03-06T13:37:17.539Z,44.89
2018-03-06T13:38:20.882Z,48.31
2018-03-06T13:39:24.290Z,50.28
2018-03-06T13:40:27.801Z,50.13
2018-03-06T13:41:31.029Z,52.07
2018-03-06T13:42:34.557Z,51.88
2018-03-06T13:43:37.908Z,50.64
2018-03-06T13:44:41.193Z,50.93
2018-03-06T13:45:44.585Z,49.36
2018-03-06T13:46:48.054Z,48.24
2018-03-06T13:47:51.452Z,47.02
2018-03-06T13:48:55.091Z,47.37
2018-03-06T13:49:58.320Z,47.11
2018-03-06T13:51:01.629Z,46.28
2018-03-06T13:52:04.968Z,46.28
2018-03-06T13:53:08.233Z,48.02
2018-03-06T13:54:11.537Z,47.92
2018-03-06T13:55:15.081Z,47.79
2018-03-06T13:56:18.440Z,47.16
2018-03-06T13:57:22.050Z,46.73
2018-03-06T13:58:26.617Z,46.34
2018-03-06T13:59:30.097Z,46.15
2018-03-06T14:00:33.415Z,47.58
2018-03-06T14:01:37.001Z,47.73
2018-03-06T14:02:40.650Z,48.31
2018-03-06T14:03:44.993Z,49.70
2018-03-06T14:04:49.729Z,50.10
2018-03-06T14:05:53.152Z,49.69
2018-03-06T14:06:56.449Z,50.91
2018-03-06T14:08:00.079Z,51.29
2018-03-06T14:09:03.411Z,49.34
2018-03-06T14:10:07.534Z,47.21
2018-03-06T14:11:11.520Z,45.77
2018-03-06T14:12:15.149Z,45.87
2018-03-06T14:13:18.536Z,44.54
2018-03-06T14:14:22.237Z,45.61
2018-03-06T14:15:25.609Z,46.62
2018-03-06T14:16:29.408Z,47.55
2018-03-06T14:17:33.805Z,46.94
2018-03-06T14:18:37.600Z,46.10
2018-03-06T14:19:40.852Z,44.73
2018-03-06T14:20:44.438Z,44.66
2018-03-06T14:21:47.745Z,46.92
2018-03-06T14:22:51.794Z,49.50
2018-03-06T14:23:56.624Z,50.87
2018-03-06T14:25:00.650Z,50.47
2018-03-06T14:26:04.128Z,50.13
2018-03-06T14:27:07.577Z,49.72
2018-03-06T14:28:10.921Z,49.82
2018-03-06T14:29:14.441Z,52.24
2018-03-06T14:30:20.887Z,56.62
2018-03-06T14:31:25.390Z,57.96
2018-03-06T14:32:30.276Z,57.21
2018-03-06T14:33:34.834Z,58.39